Hinton, VA (22831)

8:34 PM EST on January 25, 2015 (GMT -0500)
Rawley Springs | Change Station
CLOSE
Current Station
Personal Weather Station
Location: Hinton, VA
Elevation: 1581 ft
Nearby Weather Stations
Active Advisory: Winter Weather Advisory

Elev 1581 ft 38.49 °N, 79.03 °W | Updated 5 seconds ago

Mostly Cloudy
Mostly Cloudy
33.3 °F
Feels Like 33 °F
N
0.0
Wind Variable Wind from WSW
Gusts 0.0 mph

Today
High -- | Low -- °F
--% Chance of Precip.
Yesterday
High -- | Low -- °F
Precip. -- in
7:27 AM 5:30 PM
Waxing Crescent, 37% visible
Pressure 29.80 in
Visibility 10.0 miles
Clouds Clear
Windchill 33 °F
Dew Point -24 °F
Humidity 7%
Rainfall 0.00 in
Snow Depth Not available.
UV 0 out of 12
Pollen .10 out of 12
Air Quality Not available.
Flu Activity Not available.
METAR KSHD 260115Z AUTO 00000KT 10SM CLR 03/00 A2980 RMK AO2 T00281003

More Conditions Fewer Conditions

Pressure 29.80 in
Visibility 10.0 miles
Clouds Clear
Windchill 33 °F
Dew Point -24 °F
Humidity 7%
Rainfall 0.00 in
Snow Depth Not available.
UV 0 out of 12
Pollen .10 out of 12
Air Quality Not available.
Flu Activity Not available.
METAR KSHD 260115Z AUTO 00000KT 10SM CLR 03/00 A2980 RMK AO2 T00281003

More Conditions Fewer Conditions

10-Day Weather Forecast

Almanac

Astronomy

Jan. 25, 2015 Rise Set
Actual Time
Civil Twilight
Nautical Twilight
Astronomical Twilight
Moon
Length of Visible Light
Length of Day
Tomorrow will be .
, % of the Moon is Illuminated

Today's Extremes

State Highs State Lows

Community

WunderPhotos

Upload Photos

1,790,039 photos uploaded!

WunderBlogs® & News

Nearby

Air Quality

  Air Quality AQ Index Pollutant
Not available.

Snow Depth

Station Depth Elevation

Earthquake Activity

City Distance Mag. Time & Date
Minimum magnitude displayed is 2.5.

Coastal Water Temperatures

Place Temperature

Nearby Weather Stations